sensor_id;sensor_type;location;lat;lon;timestamp;P1;durP1;ratioP1;P2;durP2;ratioP2
11646;SDS011;5880;52.342;9.662;2022-12-07T00:01:25;13.90;;;10.13;;
11646;SDS011;5880;52.342;9.662;2022-12-07T00:04:04;14.27;;;9.90;;
11646;SDS011;5880;52.342;9.662;2022-12-07T00:06:35;15.17;;;10.30;;
11646;SDS011;5880;52.342;9.662;2022-12-07T00:09:09;15.40;;;10.63;;
11646;SDS011;5880;52.342;9.662;2022-12-07T00:11:38;13.63;;;10.27;;
11646;SDS011;5880;52.342;9.662;2022-12-07T00:14:05;14.33;;;10.07;;
11646;SDS011;5880;52.342;9.662;2022-12-07T00:16:35;14.27;;;10.27;;
11646;SDS011;5880;52.342;9.662;2022-12-07T00:19:01;15.03;;;9.80;;
11646;SDS011;5880;52.342;9.662;2022-12-07T00:21:32;14.90;;;10.47;;
11646;SDS011;5880;52.342;9.662;2022-12-07T00:24:01;14.80;;;10.10;;
11646;SDS011;5880;52.342;9.662;2022-12-07T00:26:32;13.97;;;9.87;;
11646;SDS011;5880;52.342;9.662;2022-12-07T00:29:04;13.80;;;10.23;;
11646;SDS011;5880;52.342;9.662;2022-12-07T00:31:38;13.77;;;10.10;;
11646;SDS011;5880;52.342;9.662;2022-12-07T00:34:04;14.10;;;9.47;;
11646;SDS011;5880;52.342;9.662;2022-12-07T00:36:31;15.83;;;10.00;;
11646;SDS011;5880;52.342;9.662;2022-12-07T00:38:59;13.40;;;10.07;;
11646;SDS011;5880;52.342;9.662;2022-12-07T00:41:27;12.87;;;9.77;;
11646;SDS011;5880;52.342;9.662;2022-12-07T00:43:54;13.83;;;10.47;;
11646;SDS011;5880;52.342;9.662;2022-12-07T00:46:21;14.83;;;10.87;;
11646;SDS011;5880;52.342;9.662;2022-12-07T00:48:48;13.30;;;10.17;;
11646;SDS011;5880;52.342;9.662;2022-12-07T00:51:15;14.47;;;9.73;;
11646;SDS011;5880;52.342;9.662;2022-12-07T00:53:44;14.30;;;10.10;;
11646;SDS011;5880;52.342;9.662;2022-12-07T00:56:14;12.10;;;9.67;;
11646;SDS011;5880;52.342;9.662;2022-12-07T00:58:52;11.53;;;8.83;;
11646;SDS011;5880;52.342;9.662;2022-12-07T01:01:20;13.07;;;9.33;;
11646;SDS011;5880;52.342;9.662;2022-12-07T01:03:47;12.50;;;9.63;;
11646;SDS011;5880;52.342;9.662;2022-12-07T01:06:14;14.03;;;10.03;;
11646;SDS011;5880;52.342;9.662;2022-12-07T01:08:42;12.27;;;9.63;;
11646;SDS011;5880;52.342;9.662;2022-12-07T01:11:09;12.73;;;10.13;;
11646;SDS011;5880;52.342;9.662;2022-12-07T01:13:40;14.10;;;10.50;;
11646;SDS011;5880;52.342;9.662;2022-12-07T01:16:07;13.63;;;10.70;;
11646;SDS011;5880;52.342;9.662;2022-12-07T01:18:35;12.50;;;10.37;;
11646;SDS011;5880;52.342;9.662;2022-12-07T01:21:14;12.77;;;10.10;;
11646;SDS011;5880;52.342;9.662;2022-12-07T01:23:49;13.63;;;9.93;;
11646;SDS011;5880;52.342;9.662;2022-12-07T01:26:17;13.53;;;10.13;;
11646;SDS011;5880;52.342;9.662;2022-12-07T01:28:46;12.57;;;9.73;;
11646;SDS011;5880;52.342;9.662;2022-12-07T01:31:17;12.77;;;9.97;;
11646;SDS011;5880;52.342;9.662;2022-12-07T01:33:46;14.00;;;10.30;;
11646;SDS011;5880;52.342;9.662;2022-12-07T01:36:20;12.23;;;9.60;;
11646;SDS011;5880;52.342;9.662;2022-12-07T01:38:54;12.57;;;9.73;;
11646;SDS011;5880;52.342;9.662;2022-12-07T01:41:23;13.93;;;10.20;;
11646;SDS011;5880;52.342;9.662;2022-12-07T01:44:10;14.67;;;10.60;;
11646;SDS011;5880;52.342;9.662;2022-12-07T01:47:00;12.33;;;9.67;;
11646;SDS011;5880;52.342;9.662;2022-12-07T01:49:31;13.50;;;10.13;;
11646;SDS011;5880;52.342;9.662;2022-12-07T01:52:08;12.97;;;10.00;;
11646;SDS011;5880;52.342;9.662;2022-12-07T01:54:53;13.23;;;10.00;;
11646;SDS011;5880;52.342;9.662;2022-12-07T01:57:24;13.20;;;9.93;;
11646;SDS011;5880;52.342;9.662;2022-12-07T01:59:51;15.93;;;11.30;;
11646;SDS011;5880;52.342;9.662;2022-12-07T02:02:20;11.97;;;9.57;;
11646;SDS011;5880;52.342;9.662;2022-12-07T02:04:53;14.03;;;10.67;;
11646;SDS011;5880;52.342;9.662;2022-12-07T02:07:21;12.03;;;9.53;;
11646;SDS011;5880;52.342;9.662;2022-12-07T02:09:49;13.10;;;10.27;;
11646;SDS011;5880;52.342;9.662;2022-12-07T02:12:14;12.13;;;9.63;;
11646;SDS011;5880;52.342;9.662;2022-12-07T02:14:40;12.73;;;9.47;;
11646;SDS011;5880;52.342;9.662;2022-12-07T02:20:21;11.20;;;9.23;;
11646;SDS011;5880;52.342;9.662;2022-12-07T02:26:19;10.87;;;8.83;;
11646;SDS011;5880;52.342;9.662;2022-12-07T02:29:17;11.07;;;8.60;;
11646;SDS011;5880;52.342;9.662;2022-12-07T02:31:55;12.70;;;9.40;;
11646;SDS011;5880;52.342;9.662;2022-12-07T02:34:42;11.73;;;9.03;;
11646;SDS011;5880;52.342;9.662;2022-12-07T02:37:21;10.93;;;8.67;;
11646;SDS011;5880;52.342;9.662;2022-12-07T02:40:21;10.67;;;8.43;;
11646;SDS011;5880;52.342;9.662;2022-12-07T02:43:07;12.43;;;9.00;;
11646;SDS011;5880;52.342;9.662;2022-12-07T02:45:43;11.60;;;8.67;;
11646;SDS011;5880;52.342;9.662;2022-12-07T02:48:13;12.20;;;8.27;;
11646;SDS011;5880;52.342;9.662;2022-12-07T02:50:45;12.03;;;8.27;;
11646;SDS011;5880;52.342;9.662;2022-12-07T02:53:28;12.83;;;9.20;;
11646;SDS011;5880;52.342;9.662;2022-12-07T02:56:07;13.93;;;8.70;;
11646;SDS011;5880;52.342;9.662;2022-12-07T03:04:49;11.30;;;8.97;;
11646;SDS011;5880;52.342;9.662;2022-12-07T03:13:22;10.87;;;8.50;;
11646;SDS011;5880;52.342;9.662;2022-12-07T03:16:17;10.67;;;8.57;;
11646;SDS011;5880;52.342;9.662;2022-12-07T03:21:40;9.80;;;7.63;;
11646;SDS011;5880;52.342;9.662;2022-12-07T03:24:14;9.33;;;7.57;;
11646;SDS011;5880;52.342;9.662;2022-12-07T03:26:53;13.00;;;7.77;;
11646;SDS011;5880;52.342;9.662;2022-12-07T03:29:35;10.80;;;8.00;;
11646;SDS011;5880;52.342;9.662;2022-12-07T03:32:09;10.53;;;7.60;;
11646;SDS011;5880;52.342;9.662;2022-12-07T03:34:52;10.10;;;7.20;;
11646;SDS011;5880;52.342;9.662;2022-12-07T03:37:37;9.87;;;6.77;;
11646;SDS011;5880;52.342;9.662;2022-12-07T03:40:15;9.40;;;7.03;;
11646;SDS011;5880;52.342;9.662;2022-12-07T03:42:53;10.13;;;7.10;;
11646;SDS011;5880;52.342;9.662;2022-12-07T03:45:25;9.23;;;6.83;;
11646;SDS011;5880;52.342;9.662;2022-12-07T03:51:08;8.83;;;6.97;;
11646;SDS011;5880;52.342;9.662;2022-12-07T03:53:53;8.97;;;6.93;;
11646;SDS011;5880;52.342;9.662;2022-12-07T03:56:27;9.13;;;6.77;;
11646;SDS011;5880;52.342;9.662;2022-12-07T03:58:55;8.67;;;7.23;;
11646;SDS011;5880;52.342;9.662;2022-12-07T04:01:22;11.43;;;8.07;;
11646;SDS011;5880;52.342;9.662;2022-12-07T04:03:48;8.77;;;6.93;;
11646;SDS011;5880;52.342;9.662;2022-12-07T04:06:14;10.40;;;7.53;;
11646;SDS011;5880;52.342;9.662;2022-12-07T04:08:40;10.67;;;7.80;;
11646;SDS011;5880;52.342;9.662;2022-12-07T04:11:06;10.40;;;7.70;;
11646;SDS011;5880;52.342;9.662;2022-12-07T04:13:31;9.80;;;7.43;;
11646;SDS011;5880;52.342;9.662;2022-12-07T04:16:17;10.57;;;7.10;;
11646;SDS011;5880;52.342;9.662;2022-12-07T04:18:43;11.20;;;7.47;;
11646;SDS011;5880;52.342;9.662;2022-12-07T04:21:08;10.70;;;7.57;;
11646;SDS011;5880;52.342;9.662;2022-12-07T04:23:34;10.53;;;7.50;;
11646;SDS011;5880;52.342;9.662;2022-12-07T04:25:59;13.23;;;7.53;;
11646;SDS011;5880;52.342;9.662;2022-12-07T04:28:25;12.47;;;8.37;;
11646;SDS011;5880;52.342;9.662;2022-12-07T04:30:51;9.90;;;7.43;;
11646;SDS011;5880;52.342;9.662;2022-12-07T04:33:16;10.60;;;7.10;;
11646;SDS011;5880;52.342;9.662;2022-12-07T04:35:42;10.97;;;7.43;;
11646;SDS011;5880;52.342;9.662;2022-12-07T04:38:08;11.57;;;7.50;;
11646;SDS011;5880;52.342;9.662;2022-12-07T04:40:34;11.80;;;7.30;;
11646;SDS011;5880;52.342;9.662;2022-12-07T04:43:00;9.50;;;6.50;;
11646;SDS011;5880;52.342;9.662;2022-12-07T04:45:25;11.30;;;7.97;;
11646;SDS011;5880;52.342;9.662;2022-12-07T04:47:51;10.43;;;7.33;;
11646;SDS011;5880;52.342;9.662;2022-12-07T04:50:16;10.77;;;7.23;;
11646;SDS011;5880;52.342;9.662;2022-12-07T04:52:42;9.90;;;7.00;;
11646;SDS011;5880;52.342;9.662;2022-12-07T04:55:08;12.53;;;6.77;;
11646;SDS011;5880;52.342;9.662;2022-12-07T04:57:34;10.93;;;7.10;;
11646;SDS011;5880;52.342;9.662;2022-12-07T04:59:59;13.10;;;7.03;;
11646;SDS011;5880;52.342;9.662;2022-12-07T05:02:25;11.63;;;7.60;;
11646;SDS011;5880;52.342;9.662;2022-12-07T05:04:51;11.97;;;6.87;;
11646;SDS011;5880;52.342;9.662;2022-12-07T05:07:16;10.80;;;6.63;;
11646;SDS011;5880;52.342;9.662;2022-12-07T05:09:42;10.30;;;6.47;;
11646;SDS011;5880;52.342;9.662;2022-12-07T05:12:07;9.57;;;6.33;;
11646;SDS011;5880;52.342;9.662;2022-12-07T05:14:33;9.47;;;6.60;;
11646;SDS011;5880;52.342;9.662;2022-12-07T05:16:59;8.50;;;5.80;;
11646;SDS011;5880;52.342;9.662;2022-12-07T05:19:24;7.30;;;5.67;;
11646;SDS011;5880;52.342;9.662;2022-12-07T05:21:51;10.03;;;6.37;;
11646;SDS011;5880;52.342;9.662;2022-12-07T05:24:17;9.20;;;5.73;;
11646;SDS011;5880;52.342;9.662;2022-12-07T05:26:43;9.00;;;5.97;;
11646;SDS011;5880;52.342;9.662;2022-12-07T05:29:11;9.50;;;5.93;;
11646;SDS011;5880;52.342;9.662;2022-12-07T05:31:39;10.07;;;5.87;;
11646;SDS011;5880;52.342;9.662;2022-12-07T05:34:05;8.17;;;5.73;;
11646;SDS011;5880;52.342;9.662;2022-12-07T05:36:30;7.33;;;5.60;;
11646;SDS011;5880;52.342;9.662;2022-12-07T05:38:57;8.73;;;5.30;;
11646;SDS011;5880;52.342;9.662;2022-12-07T05:41:23;9.10;;;5.57;;
11646;SDS011;5880;52.342;9.662;2022-12-07T05:44:27;7.10;;;4.87;;
11646;SDS011;5880;52.342;9.662;2022-12-07T05:46:52;9.23;;;5.10;;
11646;SDS011;5880;52.342;9.662;2022-12-07T05:49:18;7.10;;;5.07;;
11646;SDS011;5880;52.342;9.662;2022-12-07T05:51:44;8.57;;;5.17;;
11646;SDS011;5880;52.342;9.662;2022-12-07T05:54:09;7.70;;;5.27;;
11646;SDS011;5880;52.342;9.662;2022-12-07T05:56:35;6.80;;;4.33;;
11646;SDS011;5880;52.342;9.662;2022-12-07T05:59:00;7.13;;;4.50;;
11646;SDS011;5880;52.342;9.662;2022-12-07T06:01:45;7.73;;;4.80;;
11646;SDS011;5880;52.342;9.662;2022-12-07T06:04:11;6.03;;;4.40;;
11646;SDS011;5880;52.342;9.662;2022-12-07T06:06:36;6.90;;;4.20;;
11646;SDS011;5880;52.342;9.662;2022-12-07T06:09:02;6.07;;;3.93;;
11646;SDS011;5880;52.342;9.662;2022-12-07T06:11:29;4.97;;;3.77;;
11646;SDS011;5880;52.342;9.662;2022-12-07T06:14:13;6.47;;;4.60;;
11646;SDS011;5880;52.342;9.662;2022-12-07T06:16:39;8.03;;;4.50;;
11646;SDS011;5880;52.342;9.662;2022-12-07T06:19:05;7.17;;;3.90;;
11646;SDS011;5880;52.342;9.662;2022-12-07T06:21:30;7.00;;;4.30;;
11646;SDS011;5880;52.342;9.662;2022-12-07T06:23:56;6.10;;;3.80;;
11646;SDS011;5880;52.342;9.662;2022-12-07T06:26:22;5.10;;;3.67;;
11646;SDS011;5880;52.342;9.662;2022-12-07T06:28:47;5.20;;;3.60;;
11646;SDS011;5880;52.342;9.662;2022-12-07T06:31:13;7.27;;;4.17;;
11646;SDS011;5880;52.342;9.662;2022-12-07T06:33:39;6.20;;;3.77;;
11646;SDS011;5880;52.342;9.662;2022-12-07T06:36:05;6.13;;;3.67;;
11646;SDS011;5880;52.342;9.662;2022-12-07T06:38:31;4.70;;;3.23;;
11646;SDS011;5880;52.342;9.662;2022-12-07T06:40:57;7.80;;;4.00;;
11646;SDS011;5880;52.342;9.662;2022-12-07T06:43:23;5.40;;;3.83;;
11646;SDS011;5880;52.342;9.662;2022-12-07T06:45:48;4.67;;;3.17;;
11646;SDS011;5880;52.342;9.662;2022-12-07T06:48:14;6.00;;;3.07;;
11646;SDS011;5880;52.342;9.662;2022-12-07T06:50:40;5.20;;;3.07;;
11646;SDS011;5880;52.342;9.662;2022-12-07T06:53:05;4.97;;;2.83;;
11646;SDS011;5880;52.342;9.662;2022-12-07T06:55:31;5.07;;;3.17;;
11646;SDS011;5880;52.342;9.662;2022-12-07T06:57:57;4.33;;;2.90;;
11646;SDS011;5880;52.342;9.662;2022-12-07T07:00:22;3.53;;;2.80;;
11646;SDS011;5880;52.342;9.662;2022-12-07T07:02:48;4.47;;;3.20;;
11646;SDS011;5880;52.342;9.662;2022-12-07T07:05:14;3.97;;;3.07;;
11646;SDS011;5880;52.342;9.662;2022-12-07T07:07:41;3.33;;;2.97;;
11646;SDS011;5880;52.342;9.662;2022-12-07T07:10:07;4.40;;;2.87;;
11646;SDS011;5880;52.342;9.662;2022-12-07T07:12:33;5.67;;;2.90;;
11646;SDS011;5880;52.342;9.662;2022-12-07T07:14:58;5.47;;;2.77;;
11646;SDS011;5880;52.342;9.662;2022-12-07T07:17:24;3.87;;;2.83;;
11646;SDS011;5880;52.342;9.662;2022-12-07T07:19:50;4.83;;;2.70;;
11646;SDS011;5880;52.342;9.662;2022-12-07T07:22:15;4.63;;;2.40;;
11646;SDS011;5880;52.342;9.662;2022-12-07T07:24:41;4.60;;;2.80;;
11646;SDS011;5880;52.342;9.662;2022-12-07T07:27:06;4.60;;;2.30;;
11646;SDS011;5880;52.342;9.662;2022-12-07T07:29:32;4.57;;;2.50;;
11646;SDS011;5880;52.342;9.662;2022-12-07T07:31:59;2.33;;;1.80;;
11646;SDS011;5880;52.342;9.662;2022-12-07T07:34:25;3.27;;;2.07;;
11646;SDS011;5880;52.342;9.662;2022-12-07T07:36:50;3.63;;;2.17;;
11646;SDS011;5880;52.342;9.662;2022-12-07T07:39:16;2.87;;;2.00;;
11646;SDS011;5880;52.342;9.662;2022-12-07T07:41:41;2.63;;;1.90;;
11646;SDS011;5880;52.342;9.662;2022-12-07T07:44:07;3.13;;;1.93;;
11646;SDS011;5880;52.342;9.662;2022-12-07T07:46:34;5.13;;;1.87;;
11646;SDS011;5880;52.342;9.662;2022-12-07T07:49:00;3.47;;;1.70;;
11646;SDS011;5880;52.342;9.662;2022-12-07T07:51:26;4.93;;;1.90;;
11646;SDS011;5880;52.342;9.662;2022-12-07T07:53:51;3.30;;;1.60;;
11646;SDS011;5880;52.342;9.662;2022-12-07T07:56:17;4.27;;;1.90;;
11646;SDS011;5880;52.342;9.662;2022-12-07T07:58:43;3.63;;;1.93;;
11646;SDS011;5880;52.342;9.662;2022-12-07T08:01:08;3.30;;;1.70;;
11646;SDS011;5880;52.342;9.662;2022-12-07T08:03:34;2.20;;;1.33;;
11646;SDS011;5880;52.342;9.662;2022-12-07T08:06:03;4.13;;;1.60;;
11646;SDS011;5880;52.342;9.662;2022-12-07T08:08:30;5.77;;;1.80;;
11646;SDS011;5880;52.342;9.662;2022-12-07T08:10:56;2.27;;;1.27;;
11646;SDS011;5880;52.342;9.662;2022-12-07T08:13:25;1.57;;;1.47;;
11646;SDS011;5880;52.342;9.662;2022-12-07T08:15:51;2.57;;;1.60;;
11646;SDS011;5880;52.342;9.662;2022-12-07T08:18:16;4.00;;;1.43;;
11646;SDS011;5880;52.342;9.662;2022-12-07T08:20:42;2.67;;;1.50;;
11646;SDS011;5880;52.342;9.662;2022-12-07T08:23:08;2.70;;;1.50;;
11646;SDS011;5880;52.342;9.662;2022-12-07T08:25:35;2.77;;;1.40;;
11646;SDS011;5880;52.342;9.662;2022-12-07T08:28:01;2.60;;;1.30;;
11646;SDS011;5880;52.342;9.662;2022-12-07T08:30:28;5.23;;;1.40;;
11646;SDS011;5880;52.342;9.662;2022-12-07T08:32:55;2.60;;;1.47;;
11646;SDS011;5880;52.342;9.662;2022-12-07T08:35:21;3.27;;;1.30;;
11646;SDS011;5880;52.342;9.662;2022-12-07T08:37:47;2.43;;;1.37;;
11646;SDS011;5880;52.342;9.662;2022-12-07T08:40:13;1.90;;;1.20;;
11646;SDS011;5880;52.342;9.662;2022-12-07T08:42:41;2.80;;;1.60;;
11646;SDS011;5880;52.342;9.662;2022-12-07T08:45:10;3.87;;;1.40;;
11646;SDS011;5880;52.342;9.662;2022-12-07T08:47:43;2.10;;;1.30;;
11646;SDS011;5880;52.342;9.662;2022-12-07T08:50:31;3.17;;;1.40;;
11646;SDS011;5880;52.342;9.662;2022-12-07T08:52:58;2.20;;;1.23;;
11646;SDS011;5880;52.342;9.662;2022-12-07T08:55:26;2.23;;;1.40;;
11646;SDS011;5880;52.342;9.662;2022-12-07T08:57:54;2.00;;;1.50;;
11646;SDS011;5880;52.342;9.662;2022-12-07T09:00:22;3.87;;;1.60;;
11646;SDS011;5880;52.342;9.662;2022-12-07T09:02:47;3.00;;;1.33;;
11646;SDS011;5880;52.342;9.662;2022-12-07T09:05:13;3.00;;;1.30;;
11646;SDS011;5880;52.342;9.662;2022-12-07T09:07:42;3.03;;;1.47;;
11646;SDS011;5880;52.342;9.662;2022-12-07T09:10:13;1.90;;;1.30;;
11646;SDS011;5880;52.342;9.662;2022-12-07T09:12:39;2.40;;;1.37;;
11646;SDS011;5880;52.342;9.662;2022-12-07T09:15:04;1.77;;;1.20;;
11646;SDS011;5880;52.342;9.662;2022-12-07T09:17:34;2.67;;;1.10;;
11646;SDS011;5880;52.342;9.662;2022-12-07T09:20:00;3.00;;;1.40;;
11646;SDS011;5880;52.342;9.662;2022-12-07T09:22:28;2.40;;;1.40;;
11646;SDS011;5880;52.342;9.662;2022-12-07T09:24:56;1.73;;;1.30;;
11646;SDS011;5880;52.342;9.662;2022-12-07T09:27:26;4.20;;;1.23;;
11646;SDS011;5880;52.342;9.662;2022-12-07T09:29:52;2.07;;;1.27;;
11646;SDS011;5880;52.342;9.662;2022-12-07T09:32:18;3.20;;;1.37;;
11646;SDS011;5880;52.342;9.662;2022-12-07T09:34:44;4.03;;;1.50;;
11646;SDS011;5880;52.342;9.662;2022-12-07T09:37:10;2.27;;;1.10;;
11646;SDS011;5880;52.342;9.662;2022-12-07T09:39:39;2.40;;;1.80;;
11646;SDS011;5880;52.342;9.662;2022-12-07T09:42:06;2.50;;;1.50;;
11646;SDS011;5880;52.342;9.662;2022-12-07T09:44:33;3.63;;;1.40;;
11646;SDS011;5880;52.342;9.662;2022-12-07T09:47:00;1.43;;;1.00;;
11646;SDS011;5880;52.342;9.662;2022-12-07T09:49:28;3.73;;;1.30;;
11646;SDS011;5880;52.342;9.662;2022-12-07T09:54:37;2.53;;;1.30;;
11646;SDS011;5880;52.342;9.662;2022-12-07T09:57:10;2.73;;;1.00;;
11646;SDS011;5880;52.342;9.662;2022-12-07T09:59:37;5.30;;;1.23;;
11646;SDS011;5880;52.342;9.662;2022-12-07T10:05:00;1.73;;;0.97;;
11646;SDS011;5880;52.342;9.662;2022-12-07T10:07:29;2.37;;;1.13;;
11646;SDS011;5880;52.342;9.662;2022-12-07T10:09:54;1.57;;;1.13;;
11646;SDS011;5880;52.342;9.662;2022-12-07T10:12:20;1.40;;;1.10;;
11646;SDS011;5880;52.342;9.662;2022-12-07T10:15:02;1.47;;;1.20;;
11646;SDS011;5880;52.342;9.662;2022-12-07T10:17:32;2.27;;;0.93;;
11646;SDS011;5880;52.342;9.662;2022-12-07T10:20:21;1.30;;;1.10;;
11646;SDS011;5880;52.342;9.662;2022-12-07T10:23:04;2.57;;;1.20;;
11646;SDS011;5880;52.342;9.662;2022-12-07T10:25:42;1.97;;;1.07;;
11646;SDS011;5880;52.342;9.662;2022-12-07T10:28:16;2.73;;;1.33;;
11646;SDS011;5880;52.342;9.662;2022-12-07T10:38:49;3.40;;;1.40;;
11646;SDS011;5880;52.342;9.662;2022-12-07T10:41:26;3.37;;;1.60;;
11646;SDS011;5880;52.342;9.662;2022-12-07T10:43:53;2.37;;;1.40;;
11646;SDS011;5880;52.342;9.662;2022-12-07T10:52:10;3.00;;;1.53;;
11646;SDS011;5880;52.342;9.662;2022-12-07T11:01:16;2.87;;;1.60;;
11646;SDS011;5880;52.342;9.662;2022-12-07T11:07:17;3.03;;;1.40;;
11646;SDS011;5880;52.342;9.662;2022-12-07T11:15:57;3.80;;;1.40;;
11646;SDS011;5880;52.342;9.662;2022-12-07T11:21:33;3.83;;;1.37;;
11646;SDS011;5880;52.342;9.662;2022-12-07T11:24:17;1.60;;;1.20;;
11646;SDS011;5880;52.342;9.662;2022-12-07T11:26:59;2.43;;;1.43;;
11646;SDS011;5880;52.342;9.662;2022-12-07T11:35:40;2.27;;;1.10;;
11646;SDS011;5880;52.342;9.662;2022-12-07T11:38:15;1.93;;;1.23;;
11646;SDS011;5880;52.342;9.662;2022-12-07T11:40:48;1.70;;;1.10;;
11646;SDS011;5880;52.342;9.662;2022-12-07T11:46:00;1.60;;;1.07;;
11646;SDS011;5880;52.342;9.662;2022-12-07T11:48:46;1.37;;;1.00;;
11646;SDS011;5880;52.342;9.662;2022-12-07T11:51:28;1.30;;;0.93;;
11646;SDS011;5880;52.342;9.662;2022-12-07T11:54:01;1.93;;;1.17;;
11646;SDS011;5880;52.342;9.662;2022-12-07T11:56:39;2.87;;;0.97;;
11646;SDS011;5880;52.342;9.662;2022-12-07T11:59:20;3.37;;;1.37;;
11646;SDS011;5880;52.342;9.662;2022-12-07T12:02:07;2.57;;;1.40;;
11646;SDS011;5880;52.342;9.662;2022-12-07T12:07:27;3.43;;;1.50;;
11646;SDS011;5880;52.342;9.662;2022-12-07T12:09:54;3.03;;;1.30;;
11646;SDS011;5880;52.342;9.662;2022-12-07T12:18:08;2.37;;;1.63;;
11646;SDS011;5880;52.342;9.662;2022-12-07T12:21:26;2.93;;;1.40;;
11646;SDS011;5880;52.342;9.662;2022-12-07T12:24:12;2.50;;;1.30;;
11646;SDS011;5880;52.342;9.662;2022-12-07T12:26:49;3.17;;;1.40;;
11646;SDS011;5880;52.342;9.662;2022-12-07T12:29:31;3.13;;;1.50;;
11646;SDS011;5880;52.342;9.662;2022-12-07T12:35:30;3.63;;;1.53;;
11646;SDS011;5880;52.342;9.662;2022-12-07T12:37:53;4.23;;;1.80;;
11646;SDS011;5880;52.342;9.662;2022-12-07T12:42:55;2.50;;;1.70;;
11646;SDS011;5880;52.342;9.662;2022-12-07T12:45:23;3.37;;;1.60;;
11646;SDS011;5880;52.342;9.662;2022-12-07T12:48:00;4.20;;;1.97;;
11646;SDS011;5880;52.342;9.662;2022-12-07T12:50:34;2.73;;;1.50;;
11646;SDS011;5880;52.342;9.662;2022-12-07T12:53:12;2.83;;;1.37;;
11646;SDS011;5880;52.342;9.662;2022-12-07T12:55:58;2.43;;;1.50;;
11646;SDS011;5880;52.342;9.662;2022-12-07T13:01:48;1.57;;;1.33;;
11646;SDS011;5880;52.342;9.662;2022-12-07T13:04:52;3.07;;;1.47;;
11646;SDS011;5880;52.342;9.662;2022-12-07T13:15:37;1.67;;;1.20;;
11646;SDS011;5880;52.342;9.662;2022-12-07T13:20:44;3.53;;;1.30;;
11646;SDS011;5880;52.342;9.662;2022-12-07T13:23:21;2.87;;;1.10;;
11646;SDS011;5880;52.342;9.662;2022-12-07T13:26:04;3.03;;;1.23;;
11646;SDS011;5880;52.342;9.662;2022-12-07T13:28:35;3.60;;;1.30;;
11646;SDS011;5880;52.342;9.662;2022-12-07T13:31:17;2.57;;;1.10;;
11646;SDS011;5880;52.342;9.662;2022-12-07T13:33:53;3.33;;;1.60;;
11646;SDS011;5880;52.342;9.662;2022-12-07T13:36:22;3.17;;;1.37;;
11646;SDS011;5880;52.342;9.662;2022-12-07T13:38:56;4.53;;;1.30;;
11646;SDS011;5880;52.342;9.662;2022-12-07T13:41:53;3.27;;;1.30;;
11646;SDS011;5880;52.342;9.662;2022-12-07T13:44:25;5.10;;;1.50;;
11646;SDS011;5880;52.342;9.662;2022-12-07T13:49:45;2.00;;;1.20;;
11646;SDS011;5880;52.342;9.662;2022-12-07T13:55:29;3.73;;;1.13;;
11646;SDS011;5880;52.342;9.662;2022-12-07T13:57:30;2.43;;;1.57;;
11646;SDS011;5880;52.342;9.662;2022-12-07T14:00:00;3.27;;;1.60;;
11646;SDS011;5880;52.342;9.662;2022-12-07T14:02:30;4.17;;;1.30;;
11646;SDS011;5880;52.342;9.662;2022-12-07T14:05:06;4.10;;;1.43;;
11646;SDS011;5880;52.342;9.662;2022-12-07T14:16:18;3.77;;;1.13;;
11646;SDS011;5880;52.342;9.662;2022-12-07T14:18:56;2.50;;;1.10;;
11646;SDS011;5880;52.342;9.662;2022-12-07T14:21:26;3.73;;;1.10;;
11646;SDS011;5880;52.342;9.662;2022-12-07T14:26:45;1.93;;;1.10;;
11646;SDS011;5880;52.342;9.662;2022-12-07T14:29:29;2.37;;;1.00;;
11646;SDS011;5880;52.342;9.662;2022-12-07T14:31:59;1.53;;;1.10;;
11646;SDS011;5880;52.342;9.662;2022-12-07T14:37:35;1.90;;;1.20;;
11646;SDS011;5880;52.342;9.662;2022-12-07T14:40:02;4.80;;;1.20;;
11646;SDS011;5880;52.342;9.662;2022-12-07T14:42:29;2.13;;;1.17;;
11646;SDS011;5880;52.342;9.662;2022-12-07T14:44:56;3.67;;;1.50;;
11646;SDS011;5880;52.342;9.662;2022-12-07T14:47:24;4.93;;;1.40;;
11646;SDS011;5880;52.342;9.662;2022-12-07T14:49:51;1.63;;;1.20;;
11646;SDS011;5880;52.342;9.662;2022-12-07T14:52:21;3.67;;;1.83;;
11646;SDS011;5880;52.342;9.662;2022-12-07T14:54:53;2.97;;;1.20;;
11646;SDS011;5880;52.342;9.662;2022-12-07T14:57:19;3.60;;;1.60;;
11646;SDS011;5880;52.342;9.662;2022-12-07T14:59:45;5.73;;;1.60;;
11646;SDS011;5880;52.342;9.662;2022-12-07T15:02:11;3.87;;;1.37;;
11646;SDS011;5880;52.342;9.662;2022-12-07T15:04:39;2.43;;;1.37;;
11646;SDS011;5880;52.342;9.662;2022-12-07T15:07:06;3.13;;;1.47;;
11646;SDS011;5880;52.342;9.662;2022-12-07T15:09:43;1.93;;;1.40;;
11646;SDS011;5880;52.342;9.662;2022-12-07T15:12:09;3.23;;;1.30;;
11646;SDS011;5880;52.342;9.662;2022-12-07T15:14:35;3.20;;;1.50;;
11646;SDS011;5880;52.342;9.662;2022-12-07T15:17:00;3.00;;;1.60;;
11646;SDS011;5880;52.342;9.662;2022-12-07T15:19:26;3.40;;;1.50;;
11646;SDS011;5880;52.342;9.662;2022-12-07T15:21:52;2.10;;;1.60;;
11646;SDS011;5880;52.342;9.662;2022-12-07T15:24:18;2.80;;;1.40;;
11646;SDS011;5880;52.342;9.662;2022-12-07T15:26:45;5.90;;;2.10;;
11646;SDS011;5880;52.342;9.662;2022-12-07T15:29:11;2.80;;;1.40;;
11646;SDS011;5880;52.342;9.662;2022-12-07T15:31:39;4.13;;;1.73;;
11646;SDS011;5880;52.342;9.662;2022-12-07T15:34:05;2.80;;;1.40;;
11646;SDS011;5880;52.342;9.662;2022-12-07T15:36:32;4.43;;;1.70;;
11646;SDS011;5880;52.342;9.662;2022-12-07T15:38:59;4.53;;;1.60;;
11646;SDS011;5880;52.342;9.662;2022-12-07T15:41:25;3.50;;;1.63;;
11646;SDS011;5880;52.342;9.662;2022-12-07T15:43:51;2.67;;;1.60;;
11646;SDS011;5880;52.342;9.662;2022-12-07T15:46:37;3.63;;;1.57;;
11646;SDS011;5880;52.342;9.662;2022-12-07T15:49:10;3.43;;;1.50;;
11646;SDS011;5880;52.342;9.662;2022-12-07T15:51:45;2.53;;;1.30;;
11646;SDS011;5880;52.342;9.662;2022-12-07T15:56:54;2.93;;;1.57;;
11646;SDS011;5880;52.342;9.662;2022-12-07T15:59:21;3.37;;;1.57;;
11646;SDS011;5880;52.342;9.662;2022-12-07T16:01:48;5.00;;;1.90;;
11646;SDS011;5880;52.342;9.662;2022-12-07T16:04:13;3.03;;;1.80;;
11646;SDS011;5880;52.342;9.662;2022-12-07T16:06:39;3.67;;;1.77;;
11646;SDS011;5880;52.342;9.662;2022-12-07T16:09:05;2.63;;;1.80;;
11646;SDS011;5880;52.342;9.662;2022-12-07T16:11:31;2.50;;;1.97;;
11646;SDS011;5880;52.342;9.662;2022-12-07T16:13:58;2.73;;;2.00;;
11646;SDS011;5880;52.342;9.662;2022-12-07T16:16:23;4.57;;;1.90;;
11646;SDS011;5880;52.342;9.662;2022-12-07T16:18:50;3.37;;;1.97;;
11646;SDS011;5880;52.342;9.662;2022-12-07T16:21:17;9.13;;;2.20;;
11646;SDS011;5880;52.342;9.662;2022-12-07T16:23:43;6.93;;;2.57;;
11646;SDS011;5880;52.342;9.662;2022-12-07T16:26:13;4.47;;;1.90;;
11646;SDS011;5880;52.342;9.662;2022-12-07T16:28:43;5.77;;;2.40;;
11646;SDS011;5880;52.342;9.662;2022-12-07T16:31:11;3.80;;;2.27;;
11646;SDS011;5880;52.342;9.662;2022-12-07T16:33:41;3.80;;;2.20;;
11646;SDS011;5880;52.342;9.662;2022-12-07T16:36:09;4.43;;;2.43;;
11646;SDS011;5880;52.342;9.662;2022-12-07T16:38:37;3.33;;;2.07;;
11646;SDS011;5880;52.342;9.662;2022-12-07T16:41:04;3.40;;;2.40;;
11646;SDS011;5880;52.342;9.662;2022-12-07T16:43:31;4.30;;;2.53;;
11646;SDS011;5880;52.342;9.662;2022-12-07T16:45:57;3.73;;;2.60;;
11646;SDS011;5880;52.342;9.662;2022-12-07T16:48:23;4.40;;;2.17;;
11646;SDS011;5880;52.342;9.662;2022-12-07T16:50:49;4.83;;;2.30;;
11646;SDS011;5880;52.342;9.662;2022-12-07T16:53:15;3.47;;;2.20;;
11646;SDS011;5880;52.342;9.662;2022-12-07T16:55:42;3.77;;;2.30;;
11646;SDS011;5880;52.342;9.662;2022-12-07T16:58:10;4.07;;;2.20;;
11646;SDS011;5880;52.342;9.662;2022-12-07T17:00:39;4.37;;;2.40;;
11646;SDS011;5880;52.342;9.662;2022-12-07T17:03:06;2.90;;;2.47;;
11646;SDS011;5880;52.342;9.662;2022-12-07T17:05:36;3.70;;;2.27;;
11646;SDS011;5880;52.342;9.662;2022-12-07T17:08:04;5.27;;;2.40;;
11646;SDS011;5880;52.342;9.662;2022-12-07T17:10:30;4.03;;;2.63;;
11646;SDS011;5880;52.342;9.662;2022-12-07T17:13:02;4.50;;;2.37;;
11646;SDS011;5880;52.342;9.662;2022-12-07T17:16:02;3.13;;;2.37;;
11646;SDS011;5880;52.342;9.662;2022-12-07T17:18:31;5.37;;;2.40;;